Main page
METAR-TAF:

METAR-TAF

Airports :

Base de Almagro

Almagro, Spain

latitude: 38-57-11N, longitude: 3-44-29W, elevation: 629 m

Current weather observation

The report was made 24 minutes ago, at 11:00 UTC
Wind 8 kt from the West, varying between South and North/Northwest
Temperature 20°C
Humidity 37%
Pressure 1013 hPa
Visibility 10 km or more
no clouds below 1500 m and no cumulonimbus

METAR: LEAO 201100Z 27008KT 170V330 CAVOK 20/05 Q1013

Time: 13:24 (11:24 UTC)

Forecast

The report was made 3 hours and 24 minutes ago, at 08:00 UTC
Forecast valid from 20 at 09 UTC to 21 at 09 UTC
Wind 8 kt from the West
Visibility 10 km or more
Few clouds at a height of 2000 ft

TAF: LEAO 200800Z 2009/2109 27008KT 9999 FEW020 TX22/2015Z TN07/2105Z

Weather observations and forecasts of more than 4000 airports (METAR and TAF reports).

The available stations are represented by yellow and red dots on the map.

Hover mouse over dot to see the name of the station.

Then click to see weather observations and forecasts.

To change the map : click on the green buttons with a black cross to zoom in, on the green button with a dash to zoom out, or on the green arrows for adjacent maps.


METAR-TAF: